createdAt,value
2018-02-13T00:00:19.844Z,709.01
2018-02-13T00:01:20.308Z,709.02
2018-02-13T00:02:20.772Z,709.03
2018-02-13T00:03:21.237Z,709.11
2018-02-13T00:04:21.699Z,709.08
2018-02-13T00:05:22.164Z,709.08
2018-02-13T00:06:22.629Z,708.99
2018-02-13T00:07:23.093Z,709.01
2018-02-13T00:08:23.557Z,709.01
2018-02-13T00:09:24.022Z,709.01
2018-02-13T00:10:24.485Z,709.08
2018-02-13T00:11:24.950Z,708.99
2018-02-13T00:12:25.414Z,709.02
2018-02-13T00:13:25.876Z,709.00
2018-02-13T00:14:26.343Z,708.98
2018-02-13T00:15:26.809Z,708.98
2018-02-13T00:16:27.270Z,709.02
2018-02-13T00:17:27.735Z,709.01
2018-02-13T00:18:28.251Z,708.99
2018-02-13T00:19:28.663Z,708.94
2018-02-13T00:20:29.127Z,708.95
2018-02-13T00:21:29.590Z,708.93
2018-02-13T00:22:30.054Z,708.93
2018-02-13T00:23:30.520Z,708.96
2018-02-13T00:24:30.984Z,708.96
2018-02-13T00:25:31.448Z,708.96
2018-02-13T00:26:31.912Z,708.96
2018-02-13T00:27:32.377Z,708.87
2018-02-13T00:28:32.839Z,708.89
2018-02-13T00:29:33.304Z,708.90
2018-02-13T00:30:33.769Z,708.94
2018-02-13T00:31:34.241Z,708.93
2018-02-13T00:32:34.699Z,708.96
2018-02-13T00:33:35.159Z,708.95
2018-02-13T00:34:35.829Z,708.87
2018-02-13T00:35:36.089Z,708.92
2018-02-13T00:36:36.556Z,708.89
2018-02-13T00:37:37.015Z,708.84
2018-02-13T00:38:37.532Z,708.84
2018-02-13T00:39:37.944Z,708.84
2018-02-13T00:40:38.408Z,708.90
2018-02-13T00:41:38.874Z,708.86
2018-02-13T00:42:39.338Z,708.84
2018-02-13T00:43:39.801Z,708.84
2018-02-13T00:44:40.264Z,708.80
2018-02-13T00:45:40.730Z,708.92
2018-02-13T00:46:41.194Z,708.88
2018-02-13T00:47:41.658Z,708.92
2018-02-13T00:48:42.120Z,708.92
2018-02-13T00:49:42.587Z,708.88
2018-02-13T00:50:43.052Z,708.90
2018-02-13T00:51:43.515Z,708.90
2018-02-13T00:52:43.978Z,708.82
2018-02-13T00:53:44.494Z,708.85
2018-02-13T00:54:44.908Z,708.91
2018-02-13T00:55:45.372Z,708.92
2018-02-13T00:56:45.833Z,708.91
2018-02-13T00:57:46.304Z,708.88
2018-02-13T00:58:46.765Z,708.83
2018-02-13T00:59:47.227Z,708.85
2018-02-13T01:00:47.691Z,708.83
2018-02-13T01:01:48.155Z,708.84
2018-02-13T01:02:48.821Z,708.86
2018-02-13T01:03:49.134Z,708.81
2018-02-13T01:04:49.546Z,708.84
2018-02-13T01:05:50.015Z,708.76
2018-02-13T01:06:50.474Z,708.84
2018-02-13T01:07:50.938Z,708.83
2018-02-13T01:08:51.404Z,708.78
2018-02-13T01:09:51.868Z,708.77
2018-02-13T01:10:52.336Z,708.78
2018-02-13T01:11:52.794Z,708.83
2018-02-13T01:12:53.258Z,708.83
2018-02-13T01:13:54.127Z,708.82
2018-02-13T01:14:54.187Z,708.84
2018-02-13T01:15:54.651Z,708.84
2018-02-13T01:16:55.114Z,708.79
2018-02-13T01:17:55.577Z,708.81
2018-02-13T01:18:56.043Z,708.77
2018-02-13T01:19:56.506Z,708.79
2018-02-13T01:20:56.970Z,708.75
2018-02-13T01:21:57.435Z,708.75
2018-02-13T01:22:57.898Z,708.78
2018-02-13T01:23:58.363Z,708.78
2018-02-13T01:24:58.863Z,708.74
2018-02-13T01:25:59.289Z,708.73
2018-02-13T01:26:59.752Z,708.76
2018-02-13T01:28:00.218Z,708.72
2018-02-13T01:29:00.680Z,708.73
2018-02-13T01:30:01.145Z,708.71
2018-02-13T01:31:01.610Z,708.71
2018-02-13T01:32:02.074Z,708.77
2018-02-13T01:33:02.537Z,708.72
2018-02-13T01:34:03.001Z,708.72
2018-02-13T01:35:03.466Z,708.71
2018-02-13T01:36:03.928Z,708.74
2018-02-13T01:37:04.393Z,708.72
2018-02-13T01:38:04.858Z,708.63
2018-02-13T01:39:05.370Z,708.66
2018-02-13T01:40:05.785Z,708.67
2018-02-13T01:41:06.248Z,708.67
2018-02-13T01:42:06.718Z,708.67
2018-02-13T01:43:07.177Z,708.67
2018-02-13T01:44:07.643Z,708.62
2018-02-13T01:45:08.103Z,708.60
2018-02-13T01:46:08.567Z,708.63
2018-02-13T01:47:09.034Z,708.55
2018-02-13T01:48:09.500Z,708.65
2018-02-13T01:49:09.958Z,708.63
2018-02-13T01:50:10.422Z,708.59
2018-02-13T01:51:10.887Z,708.64
2018-02-13T01:52:11.353Z,708.60
2018-02-13T01:53:11.813Z,708.60
2018-02-13T01:54:12.328Z,708.61
2018-02-13T01:55:12.747Z,708.61
2018-02-13T01:56:13.207Z,708.58
2018-02-13T01:57:13.669Z,708.55
2018-02-13T01:58:14.133Z,708.59
2018-02-13T01:59:14.597Z,708.58
2018-02-13T02:00:15.060Z,708.53
2018-02-13T02:01:15.523Z,708.55
2018-02-13T02:02:15.988Z,708.55
2018-02-13T02:03:16.451Z,708.51
2018-02-13T02:04:16.915Z,708.55
2018-02-13T02:05:17.379Z,708.54
2018-02-13T02:06:17.841Z,708.44
2018-02-13T02:07:18.307Z,708.43
2018-02-13T02:08:18.770Z,708.45
2018-02-13T02:09:19.285Z,708.46
2018-02-13T02:10:19.699Z,708.47
2018-02-13T02:11:20.162Z,708.46
2018-02-13T02:12:20.624Z,708.47
2018-02-13T02:13:21.087Z,708.50
2018-02-13T02:14:21.604Z,708.46
2018-02-13T02:15:22.016Z,708.51
2018-02-13T02:16:22.480Z,708.44
2018-02-13T02:17:22.941Z,708.42
2018-02-13T02:18:23.407Z,708.37
2018-02-13T02:19:23.871Z,708.38
2018-02-13T02:20:24.333Z,708.42
2018-02-13T02:21:24.796Z,708.41
2018-02-13T02:22:25.261Z,708.37
2018-02-13T02:23:25.725Z,708.40
2018-02-13T02:24:26.190Z,708.34
2018-02-13T02:25:26.653Z,708.32
2018-02-13T02:26:27.117Z,708.40
2018-02-13T02:27:27.579Z,708.40
2018-02-13T02:28:28.047Z,708.40
2018-02-13T02:29:28.559Z,708.34
2018-02-13T02:30:28.971Z,708.32
2018-02-13T02:31:29.433Z,708.37
2018-02-13T02:32:29.898Z,708.34
2018-02-13T02:33:30.359Z,708.32
2018-02-13T02:34:30.825Z,708.32
2018-02-13T02:35:31.287Z,708.35
2018-02-13T02:36:31.752Z,708.29
2018-02-13T02:37:32.214Z,708.29
2018-02-13T02:38:32.677Z,708.30
2018-02-13T02:39:33.142Z,708.26
2018-02-13T02:40:33.608Z,708.29
2018-02-13T02:41:34.072Z,708.23
2018-02-13T02:42:34.532Z,708.28
2018-02-13T02:43:34.997Z,708.22
2018-02-13T02:44:35.559Z,708.27
2018-02-13T02:45:35.923Z,708.20
2018-02-13T02:46:36.389Z,708.27
2018-02-13T02:47:36.851Z,708.21
2018-02-13T02:48:37.319Z,708.20
2018-02-13T02:49:37.778Z,708.19
2018-02-13T02:50:38.241Z,708.22
2018-02-13T02:51:38.909Z,708.20
2018-02-13T02:52:39.167Z,708.22
2018-02-13T02:53:39.650Z,708.25
2018-02-13T02:54:40.095Z,708.25
2018-02-13T02:55:40.558Z,708.20
2018-02-13T02:56:41.024Z,708.20
2018-02-13T02:57:41.485Z,708.16
2018-02-13T02:58:41.950Z,708.21
2018-02-13T02:59:42.412Z,708.14
2018-02-13T03:00:42.875Z,708.14
2018-02-13T03:01:43.338Z,708.13
2018-02-13T03:02:43.804Z,708.11
2018-02-13T03:03:44.266Z,708.12
2018-02-13T03:04:44.780Z,708.13
2018-02-13T03:05:45.193Z,708.10
2018-02-13T03:06:45.658Z,708.13
2018-02-13T03:07:46.119Z,708.12
2018-02-13T03:08:46.584Z,708.09
2018-02-13T03:09:47.097Z,708.06
2018-02-13T03:10:47.510Z,708.12
2018-02-13T03:11:48.013Z,708.13
2018-02-13T03:12:48.437Z,708.09
2018-02-13T03:13:48.900Z,708.17
2018-02-13T03:14:49.362Z,708.08
2018-02-13T03:15:49.828Z,708.11
2018-02-13T03:16:50.290Z,708.10
2018-02-13T03:17:50.752Z,708.08
2018-02-13T03:18:51.218Z,708.10
2018-02-13T03:19:51.679Z,708.06
2018-02-13T03:20:52.143Z,708.07
2018-02-13T03:21:52.811Z,708.02
2018-02-13T03:22:53.071Z,708.11
2018-02-13T03:23:53.537Z,708.08
2018-02-13T03:24:54.389Z,708.06
2018-02-13T03:25:54.460Z,708.06
2018-02-13T03:26:54.926Z,708.07
2018-02-13T03:27:55.387Z,708.06
2018-02-13T03:28:55.851Z,708.02
2018-02-13T03:29:56.313Z,708.07
2018-02-13T03:30:56.777Z,708.02
2018-02-13T03:31:57.241Z,708.03
2018-02-13T03:32:57.704Z,708.01
2018-02-13T03:33:58.167Z,708.02
2018-02-13T03:34:58.630Z,708.02
2018-02-13T03:35:59.095Z,708.04
2018-02-13T03:36:59.559Z,707.97
2018-02-13T03:38:00.029Z,707.99
2018-02-13T03:39:00.485Z,707.96
2018-02-13T03:40:00.998Z,707.99
2018-02-13T03:41:01.413Z,708.01
2018-02-13T03:42:01.874Z,707.96
2018-02-13T03:43:02.336Z,707.95
2018-02-13T03:44:02.799Z,707.96
2018-02-13T03:45:03.263Z,707.95
2018-02-13T03:46:03.729Z,707.92
2018-02-13T03:47:04.188Z,707.93
2018-02-13T03:48:04.652Z,707.92
2018-02-13T03:49:05.115Z,707.92
2018-02-13T03:50:05.578Z,707.90
2018-02-13T03:51:06.043Z,707.87
2018-02-13T03:52:06.505Z,707.89
2018-02-13T03:53:06.971Z,707.89
2018-02-13T03:54:07.432Z,707.87
2018-02-13T03:55:07.894Z,707.91
2018-02-13T03:56:08.357Z,707.93
2018-02-13T03:57:08.820Z,707.94
2018-02-13T03:58:09.283Z,707.92
2018-02-13T03:59:09.746Z,707.88
2018-02-13T04:00:10.260Z,707.92
2018-02-13T04:01:10.674Z,707.87
2018-02-13T04:02:11.136Z,707.86
2018-02-13T04:03:11.600Z,707.92
2018-02-13T04:04:12.064Z,707.87
2018-02-13T04:05:12.579Z,707.86
2018-02-13T04:06:12.989Z,707.79
2018-02-13T04:07:13.451Z,707.83
2018-02-13T04:08:13.914Z,707.88
2018-02-13T04:09:14.378Z,707.89
2018-02-13T04:10:14.840Z,707.85
2018-02-13T04:11:15.304Z,707.86
2018-02-13T04:12:15.767Z,707.80
2018-02-13T04:13:16.230Z,707.83
2018-02-13T04:14:16.692Z,707.80
2018-02-13T04:15:17.207Z,707.84
2018-02-13T04:16:17.620Z,707.81
2018-02-13T04:17:18.083Z,707.81
2018-02-13T04:18:18.543Z,707.80
2018-02-13T04:19:19.010Z,707.80
2018-02-13T04:20:19.471Z,707.84
2018-02-13T04:21:19.940Z,707.78
2018-02-13T04:22:20.397Z,707.77
2018-02-13T04:23:20.859Z,707.81
2018-02-13T04:24:21.323Z,707.79
2018-02-13T04:25:21.836Z,707.73
2018-02-13T04:26:22.249Z,707.81
2018-02-13T04:27:22.712Z,707.80
2018-02-13T04:28:23.175Z,707.83
2018-02-13T04:29:23.641Z,707.85
2018-02-13T04:30:24.103Z,707.82
2018-02-13T04:31:24.564Z,707.79
2018-02-13T04:32:25.030Z,707.85
2018-02-13T04:33:25.499Z,707.81
2018-02-13T04:34:25.952Z,707.78
2018-02-13T04:35:26.417Z,707.76
2018-02-13T04:36:26.879Z,707.81
2018-02-13T04:37:27.343Z,707.82
2018-02-13T04:38:27.805Z,707.86
2018-02-13T04:39:28.268Z,707.77
2018-02-13T04:40:28.732Z,707.80
2018-02-13T04:41:29.194Z,707.78
2018-02-13T04:42:29.656Z,707.80
2018-02-13T04:43:30.120Z,707.81
2018-02-13T04:44:30.583Z,707.79
2018-02-13T04:45:31.046Z,707.86
2018-02-13T04:46:31.508Z,707.82
2018-02-13T04:47:31.971Z,707.84
2018-02-13T04:49:32.899Z,707.81
2018-02-13T04:50:33.411Z,707.75
2018-02-13T04:51:33.824Z,707.82
2018-02-13T04:52:34.286Z,707.81
2018-02-13T04:53:34.750Z,707.82
2018-02-13T04:54:35.212Z,707.80
2018-02-13T04:55:35.681Z,707.75
2018-02-13T04:56:36.146Z,707.83
2018-02-13T04:57:36.602Z,707.82
2018-02-13T04:58:37.068Z,707.76
2018-02-13T04:59:37.531Z,707.77
2018-02-13T05:00:38.103Z,707.81
2018-02-13T05:01:38.459Z,707.80
2018-02-13T05:02:38.922Z,707.80
2018-02-13T05:03:39.384Z,707.79
2018-02-13T05:04:39.841Z,707.79
2018-02-13T05:05:40.360Z,707.79
2018-02-13T05:06:40.774Z,707.78
2018-02-13T05:07:41.237Z,707.78
2018-02-13T05:08:41.693Z,707.74
2018-02-13T05:09:42.163Z,707.72
2018-02-13T05:10:42.625Z,707.72
2018-02-13T05:11:43.087Z,707.71
2018-02-13T05:12:43.551Z,707.73
2018-02-13T05:13:44.013Z,707.69
2018-02-13T05:14:44.476Z,707.66
2018-02-13T05:15:44.990Z,707.69
2018-02-13T05:16:45.404Z,707.67
2018-02-13T05:17:45.866Z,707.70
2018-02-13T05:18:46.327Z,707.65
2018-02-13T05:19:46.803Z,707.66
2018-02-13T05:20:58.939Z,707.65
2018-02-13T05:21:47.915Z,707.73
2018-02-13T05:22:48.182Z,707.63
2018-02-13T05:23:48.642Z,707.63
2018-02-13T05:24:49.105Z,707.69
2018-02-13T05:25:49.618Z,707.68
2018-02-13T05:26:50.031Z,707.70
2018-02-13T05:27:50.494Z,707.70
2018-02-13T05:28:50.957Z,707.74
2018-02-13T05:29:51.420Z,707.66
2018-02-13T05:30:51.881Z,707.67
2018-02-13T05:31:52.345Z,707.71
2018-02-13T05:32:52.807Z,707.71
2018-02-13T05:33:53.272Z,707.69
2018-02-13T05:34:53.734Z,707.72
2018-02-13T05:35:54.248Z,707.73
2018-02-13T05:36:54.659Z,707.69
2018-02-13T05:37:55.116Z,707.73
2018-02-13T05:38:55.584Z,707.66
2018-02-13T05:39:56.047Z,707.67
2018-02-13T05:40:56.506Z,707.71
2018-02-13T05:41:56.972Z,707.71
2018-02-13T05:42:57.435Z,707.67
2018-02-13T05:43:57.902Z,707.68
2018-02-13T05:44:58.365Z,707.59
2018-02-13T05:45:58.870Z,707.59
2018-02-13T05:46:59.286Z,707.65
2018-02-13T05:49:00.213Z,707.64
2018-02-13T05:51:01.137Z,707.71
2018-02-13T05:53:02.059Z,707.62
2018-02-13T05:54:02.528Z,707.62
2018-02-13T05:55:02.989Z,707.62
2018-02-13T05:56:03.502Z,707.64
2018-02-13T05:57:03.909Z,707.64
2018-02-13T05:59:04.843Z,707.61
2018-02-13T06:00:05.301Z,707.64
2018-02-13T06:01:05.817Z,707.64
2018-02-13T06:02:06.230Z,707.64
2018-02-13T06:03:06.691Z,707.62
2018-02-13T06:04:07.147Z,707.61
2018-02-13T06:05:07.616Z,707.58
2018-02-13T06:06:08.136Z,707.61
2018-02-13T06:07:08.541Z,707.52
2018-02-13T06:08:09.005Z,707.56
2018-02-13T06:09:09.467Z,707.59
2018-02-13T06:10:09.930Z,707.54
2018-02-13T06:11:10.387Z,707.55
2018-02-13T06:12:10.856Z,707.56
2018-02-13T06:13:11.314Z,707.59
2018-02-13T06:15:12.244Z,707.52
2018-02-13T06:16:12.707Z,707.55
2018-02-13T06:17:13.170Z,707.52
2018-02-13T06:18:13.632Z,707.53
2018-02-13T06:19:14.096Z,707.58
2018-02-13T06:20:14.559Z,707.55
2018-02-13T06:21:15.015Z,707.57
2018-02-13T06:22:15.486Z,707.59
2018-02-13T06:23:15.945Z,707.64
2018-02-13T06:24:16.408Z,707.59
2018-02-13T06:25:16.866Z,707.64
2018-02-13T06:26:29.020Z,707.56
2018-02-13T06:27:17.795Z,707.55
2018-02-13T06:28:18.258Z,707.59
2018-02-13T06:29:18.722Z,707.55
2018-02-13T06:31:19.647Z,707.57
2018-02-13T06:32:20.105Z,707.55
2018-02-13T06:34:21.036Z,707.56
2018-02-13T06:35:21.498Z,707.61
2018-02-13T06:36:22.010Z,707.60
2018-02-13T06:37:22.422Z,707.64
2018-02-13T06:38:22.885Z,707.58
2018-02-13T06:39:23.347Z,707.55
2018-02-13T06:40:23.809Z,707.63
2018-02-13T06:41:24.276Z,707.63
2018-02-13T06:42:24.741Z,707.63
2018-02-13T06:43:25.199Z,707.59
2018-02-13T06:44:25.665Z,707.61
2018-02-13T06:45:26.119Z,707.62
2018-02-13T06:46:26.638Z,707.59
2018-02-13T06:47:27.049Z,707.59
2018-02-13T06:48:27.512Z,707.60
2018-02-13T06:49:27.973Z,707.58
2018-02-13T06:50:28.437Z,707.54
2018-02-13T06:52:29.362Z,707.56
2018-02-13T06:53:29.819Z,707.56
2018-02-13T06:54:30.290Z,707.61
2018-02-13T06:55:30.750Z,707.57
2018-02-13T06:56:43.051Z,707.63
2018-02-13T06:57:31.677Z,707.63
2018-02-13T06:58:32.139Z,707.59
2018-02-13T06:59:32.601Z,707.59
2018-02-13T07:00:33.063Z,707.62
2018-02-13T07:01:33.526Z,707.57
2018-02-13T07:02:33.989Z,707.59
2018-02-13T07:03:34.453Z,707.56
2018-02-13T07:04:34.914Z,707.58
2018-02-13T07:05:35.372Z,707.60
2018-02-13T07:06:35.895Z,707.56
2018-02-13T07:08:36.767Z,707.68
2018-02-13T07:09:37.231Z,707.61
2018-02-13T07:10:37.694Z,707.59
2018-02-13T07:11:38.155Z,707.62
2018-02-13T07:12:38.614Z,707.52
2018-02-13T07:13:39.081Z,707.55
2018-02-13T07:14:39.546Z,707.57
2018-02-13T07:15:40.009Z,707.54
2018-02-13T07:16:40.555Z,707.57
2018-02-13T07:17:40.934Z,707.58
2018-02-13T07:18:41.399Z,707.51
2018-02-13T07:19:41.861Z,707.53
2018-02-13T07:20:42.325Z,707.53
2018-02-13T07:21:54.071Z,707.56
2018-02-13T07:22:43.250Z,707.52
2018-02-13T07:23:43.710Z,707.55
2018-02-13T07:24:44.177Z,707.56
2018-02-13T07:25:44.642Z,707.57
2018-02-13T07:26:45.109Z,707.53
2018-02-13T07:27:45.570Z,707.53
2018-02-13T07:28:46.234Z,707.57
2018-02-13T07:29:46.495Z,707.50
2018-02-13T07:30:46.961Z,707.52
2018-02-13T07:31:47.417Z,707.56
2018-02-13T07:32:47.887Z,707.50
2018-02-13T07:33:48.352Z,707.50
2018-02-13T07:34:48.816Z,707.45
2018-02-13T07:35:49.280Z,707.47
2018-02-13T07:36:49.794Z,707.46
2018-02-13T07:37:50.206Z,707.43
2018-02-13T07:38:50.669Z,707.47
2018-02-13T07:39:51.135Z,707.46
2018-02-13T07:40:51.599Z,707.42
2018-02-13T07:41:52.062Z,707.40
2018-02-13T07:42:52.521Z,707.46
2018-02-13T07:43:52.991Z,707.41
2018-02-13T07:44:53.454Z,707.43
2018-02-13T07:45:53.920Z,707.38
2018-02-13T07:46:54.384Z,707.40
2018-02-13T07:47:54.846Z,707.41
2018-02-13T07:48:55.312Z,707.44
2018-02-13T07:49:55.771Z,707.36
2018-02-13T07:50:56.240Z,707.34
2018-02-13T07:52:57.169Z,707.37
2018-02-13T07:53:57.641Z,707.33
2018-02-13T07:54:58.299Z,707.36
2018-02-13T07:55:58.563Z,707.35
2018-02-13T07:56:59.026Z,707.33
2018-02-13T07:57:59.541Z,707.33
2018-02-13T07:58:59.951Z,707.32
2018-02-13T08:00:00.419Z,707.27
2018-02-13T08:01:00.883Z,707.30
2018-02-13T08:03:01.865Z,707.34
2018-02-13T08:04:02.278Z,707.37
2018-02-13T08:05:02.747Z,707.36
2018-02-13T08:06:03.203Z,707.37
2018-02-13T08:07:03.673Z,707.37
2018-02-13T08:09:04.603Z,707.37
2018-02-13T08:10:05.072Z,707.37
2018-02-13T08:11:05.534Z,707.32
2018-02-13T08:12:05.994Z,707.34
2018-02-13T08:13:06.462Z,707.36
2018-02-13T08:14:06.920Z,707.33
2018-02-13T08:15:07.442Z,707.37
2018-02-13T08:16:07.856Z,707.33
2018-02-13T08:18:08.781Z,707.32
2018-02-13T08:19:09.277Z,707.35
2018-02-13T08:20:09.716Z,707.38
2018-02-13T08:21:10.180Z,707.31
2018-02-13T08:22:10.647Z,707.35
2018-02-13T08:23:11.106Z,707.32
2018-02-13T08:25:12.042Z,707.29
2018-02-13T08:26:12.508Z,707.32
2018-02-13T08:27:12.972Z,707.26
2018-02-13T08:29:13.903Z,707.28
2018-02-13T08:30:14.367Z,707.26
2018-02-13T08:31:14.832Z,707.31
2018-02-13T08:32:15.299Z,707.26
2018-02-13T08:33:15.758Z,707.26
2018-02-13T08:34:16.228Z,707.28
2018-02-13T08:35:16.696Z,707.29
2018-02-13T08:36:17.159Z,707.23
2018-02-13T08:37:17.624Z,707.24
2018-02-13T08:38:18.094Z,707.27
2018-02-13T08:39:18.557Z,707.19
2018-02-13T08:40:19.017Z,707.21
2018-02-13T08:41:19.489Z,707.23
2018-02-13T08:42:19.955Z,707.25
2018-02-13T08:44:20.881Z,707.20
2018-02-13T08:45:21.352Z,707.19
2018-02-13T08:46:21.816Z,707.19
2018-02-13T08:47:22.284Z,707.17
2018-02-13T08:48:22.749Z,707.22
2018-02-13T08:49:23.216Z,707.20
2018-02-13T08:50:23.681Z,707.24
2018-02-13T08:51:24.139Z,707.24
2018-02-13T08:52:24.609Z,707.23
2018-02-13T08:54:25.543Z,707.24
2018-02-13T08:55:26.007Z,707.17
2018-02-13T08:56:26.467Z,707.22
2018-02-13T08:57:26.939Z,707.17
2018-02-13T08:58:27.404Z,707.23
2018-02-13T08:59:27.871Z,707.26
2018-02-13T09:00:28.336Z,707.16
2018-02-13T09:02:29.269Z,707.18
2018-02-13T09:03:41.166Z,707.35
2018-02-13T09:04:30.200Z,707.20
2018-02-13T09:05:30.670Z,707.18
2018-02-13T09:06:31.132Z,707.20
2018-02-13T09:07:31.598Z,707.18
2018-02-13T09:09:32.532Z,707.20
2018-02-13T09:10:32.992Z,707.22
2018-02-13T09:11:33.465Z,707.17
2018-02-13T09:12:33.929Z,707.09
2018-02-13T09:13:34.445Z,707.14
2018-02-13T09:14:34.860Z,707.13
2018-02-13T09:15:35.325Z,707.10
2018-02-13T09:16:35.788Z,707.14
2018-02-13T09:17:36.254Z,707.06
2018-02-13T09:18:36.771Z,707.10
2018-02-13T09:19:37.186Z,707.10
2018-02-13T09:20:37.649Z,707.11
2018-02-13T09:21:38.108Z,707.06
2018-02-13T09:22:38.582Z,707.07
2018-02-13T09:23:39.040Z,706.98
2018-02-13T09:24:39.503Z,707.00
2018-02-13T09:25:39.965Z,707.01
2018-02-13T09:26:40.472Z,707.05
2018-02-13T09:27:40.894Z,707.03
2018-02-13T09:28:41.351Z,706.95
2018-02-13T09:29:41.819Z,707.03
2018-02-13T09:30:42.283Z,707.00
2018-02-13T09:32:43.204Z,707.02
2018-02-13T09:33:43.724Z,706.91
2018-02-13T09:35:44.601Z,706.90
2018-02-13T09:36:45.058Z,706.96
2018-02-13T09:38:46.032Z,706.85
2018-02-13T09:39:46.438Z,706.87
2018-02-13T09:40:46.903Z,706.91
2018-02-13T09:41:47.364Z,706.97
2018-02-13T09:42:47.827Z,706.91
2018-02-13T09:43:48.281Z,706.81
2018-02-13T09:45:49.210Z,706.85
2018-02-13T09:46:49.664Z,706.85
2018-02-13T09:47:50.124Z,706.89
2018-02-13T09:48:50.627Z,706.86
2018-02-13T09:49:51.043Z,706.81
2018-02-13T09:50:51.500Z,706.83
2018-02-13T09:51:51.958Z,706.86
2018-02-13T09:52:52.416Z,706.89
2018-02-13T09:53:52.925Z,706.87
2018-02-13T09:54:53.333Z,706.87
2018-02-13T09:55:53.796Z,706.87
2018-02-13T09:57:54.907Z,706.81
2018-02-13T09:59:55.621Z,706.88
2018-02-13T10:00:56.080Z,706.90
2018-02-13T10:01:56.536Z,706.88
2018-02-13T10:02:56.993Z,706.82
2018-02-13T10:03:57.451Z,706.84
2018-02-13T10:04:57.908Z,706.87
2018-02-13T10:05:58.360Z,706.87
2018-02-13T10:06:58.824Z,706.85
2018-02-13T10:07:59.280Z,706.80
2018-02-13T10:08:59.788Z,706.86
2018-02-13T10:10:00.199Z,706.86
2018-02-13T10:11:00.853Z,706.89
2018-02-13T10:12:01.107Z,706.87
2018-02-13T10:13:01.560Z,706.85
2018-02-13T10:15:02.477Z,706.83
2018-02-13T10:16:02.934Z,706.79
2018-02-13T10:17:03.386Z,706.86
2018-02-13T10:18:03.846Z,706.79
2018-02-13T10:19:04.352Z,706.78
2018-02-13T10:20:04.763Z,706.76
2018-02-13T10:21:05.215Z,706.77
2018-02-13T10:22:05.672Z,706.76
2018-02-13T10:23:06.125Z,706.78
2018-02-13T10:24:06.633Z,706.68
2018-02-13T10:25:07.036Z,706.72
2018-02-13T10:26:07.494Z,706.79
2018-02-13T10:27:07.947Z,706.74
2018-02-13T10:28:08.398Z,706.78
2018-02-13T10:29:08.859Z,706.73
2018-02-13T10:30:09.516Z,706.83
2018-02-13T10:31:09.772Z,706.77
2018-02-13T10:32:10.227Z,706.77
2018-02-13T10:33:10.680Z,706.70
2018-02-13T10:35:11.587Z,706.71
2018-02-13T10:36:12.046Z,706.69
2018-02-13T10:37:12.501Z,706.61
2018-02-13T10:38:12.957Z,706.62
2018-02-13T10:39:13.407Z,706.61
2018-02-13T10:40:13.918Z,706.63
2018-02-13T10:41:14.321Z,706.70
2018-02-13T10:42:14.777Z,706.59
2018-02-13T10:43:15.231Z,706.63
2018-02-13T10:44:15.689Z,706.68
2018-02-13T10:46:16.589Z,706.58
2018-02-13T10:47:17.052Z,706.54
2018-02-13T10:48:17.507Z,706.55
2018-02-13T10:49:17.960Z,706.52
2018-02-13T10:50:18.410Z,706.62
2018-02-13T10:51:18.870Z,706.51
2018-02-13T10:53:19.837Z,706.55
2018-02-13T10:54:20.236Z,706.55
2018-02-13T10:55:32.326Z,706.58
2018-02-13T10:56:21.146Z,706.54
2018-02-13T10:57:21.600Z,706.50
2018-02-13T10:58:22.057Z,706.52
2018-02-13T10:59:22.514Z,706.45
2018-02-13T11:01:23.426Z,706.49
2018-02-13T11:02:23.877Z,706.42
2018-02-13T11:03:24.337Z,706.41
2018-02-13T11:04:24.795Z,706.43
2018-02-13T11:05:25.249Z,706.46
2018-02-13T11:06:25.746Z,706.46
2018-02-13T11:07:26.163Z,706.37
2018-02-13T11:09:27.072Z,706.51
2018-02-13T11:10:27.584Z,706.43
2018-02-13T11:11:27.996Z,706.39
2018-02-13T11:12:28.448Z,706.37
2018-02-13T11:13:28.905Z,706.32
2018-02-13T11:14:29.363Z,706.37
2018-02-13T11:15:41.358Z,706.41
2018-02-13T11:16:30.279Z,706.47
2018-02-13T11:17:30.733Z,706.57
2018-02-13T11:18:31.192Z,706.39
2018-02-13T11:19:31.647Z,706.42
2018-02-13T11:20:32.302Z,706.46
2018-02-13T11:22:33.019Z,706.31
2018-02-13T11:23:33.476Z,706.29
2018-02-13T11:24:33.933Z,706.32
2018-02-13T11:26:34.848Z,706.34
2018-02-13T11:27:35.306Z,706.30
2018-02-13T11:28:35.763Z,706.33
2018-02-13T11:29:36.220Z,706.26
2018-02-13T11:30:36.674Z,706.35
2018-02-13T11:31:37.134Z,706.30
2018-02-13T11:32:37.594Z,706.26
2018-02-13T11:33:38.051Z,706.26
2018-02-13T11:34:38.850Z,706.33
2018-02-13T11:35:38.967Z,706.26
2018-02-13T11:36:39.426Z,706.21
2018-02-13T11:37:39.882Z,706.27
2018-02-13T11:38:40.345Z,706.28
2018-02-13T11:39:41.006Z,706.22
2018-02-13T11:40:41.308Z,706.27
2018-02-13T11:41:41.716Z,706.26
2018-02-13T11:42:42.174Z,706.27
2018-02-13T11:43:42.977Z,706.24
2018-02-13T11:44:43.094Z,706.23
2018-02-13T11:45:43.602Z,706.24
2018-02-13T11:46:44.353Z,706.18
2018-02-13T11:47:44.471Z,706.17
2018-02-13T11:48:44.932Z,706.18
2018-02-13T11:49:45.391Z,706.19
2018-02-13T11:50:46.053Z,706.21
2018-02-13T11:51:46.310Z,706.14
2018-02-13T11:52:46.770Z,706.09
2018-02-13T11:53:47.230Z,706.10
2018-02-13T11:54:47.690Z,706.08
2018-02-13T11:55:48.143Z,706.10
2018-02-13T11:56:48.611Z,706.12
2018-02-13T11:57:49.069Z,706.10
2018-02-13T11:58:49.530Z,706.05
2018-02-13T11:59:49.990Z,706.01
2018-02-13T12:00:50.502Z,706.00
2018-02-13T12:02:51.410Z,706.04
2018-02-13T12:03:51.834Z,706.04
2018-02-13T12:04:52.293Z,706.06
2018-02-13T12:06:53.211Z,706.08
2018-02-13T12:07:53.879Z,706.06
2018-02-13T12:08:54.138Z,706.07
2018-02-13T12:09:54.597Z,706.09
2018-02-13T12:11:55.520Z,706.03
2018-02-13T12:12:55.986Z,706.00
2018-02-13T12:13:56.453Z,705.98
2018-02-13T12:14:57.106Z,706.01
2018-02-13T12:15:57.568Z,705.99
2018-02-13T12:16:57.829Z,705.95
2018-02-13T12:17:58.288Z,705.88
2018-02-13T12:19:59.207Z,705.90
2018-02-13T12:20:59.724Z,705.87
2018-02-13T12:22:00.138Z,705.90
2018-02-13T12:24:01.397Z,705.89
2018-02-13T12:25:01.522Z,705.91
2018-02-13T12:26:01.982Z,705.88
2018-02-13T12:27:02.446Z,705.87
2018-02-13T12:28:02.906Z,705.89
2018-02-13T12:29:03.367Z,705.87
2018-02-13T12:30:04.169Z,705.87
2018-02-13T12:31:04.292Z,705.87
2018-02-13T12:32:04.755Z,705.85
2018-02-13T12:33:05.422Z,705.88
2018-02-13T12:34:06.014Z,705.81
2018-02-13T12:35:06.342Z,705.83
2018-02-13T12:36:06.654Z,705.86
2018-02-13T12:37:07.064Z,705.81
2018-02-13T12:38:07.526Z,705.80
2018-02-13T12:39:07.990Z,705.82
2018-02-13T12:40:08.657Z,705.80
2018-02-13T12:41:08.916Z,705.75
2018-02-13T12:42:09.380Z,705.74
2018-02-13T12:43:09.840Z,705.74
2018-02-13T12:44:10.304Z,705.74
2018-02-13T12:45:10.760Z,705.76
2018-02-13T12:46:23.465Z,705.75
2018-02-13T12:47:11.694Z,705.72
2018-02-13T12:48:12.149Z,705.76
2018-02-13T12:49:12.618Z,705.75
2018-02-13T12:50:13.077Z,705.74
2018-02-13T12:51:13.542Z,705.72
2018-02-13T12:52:14.006Z,705.75
2018-02-13T12:53:14.469Z,705.73
2018-02-13T12:54:14.930Z,705.70
2018-02-13T12:55:15.392Z,705.69
2018-02-13T12:56:15.909Z,705.62
2018-02-13T12:58:16.779Z,705.60
2018-02-13T12:59:17.246Z,705.57
2018-02-13T13:00:17.711Z,705.64
2018-02-13T13:01:18.225Z,705.58
2018-02-13T13:02:18.637Z,705.55
2018-02-13T13:03:19.100Z,705.52
2018-02-13T13:04:19.563Z,705.52
2018-02-13T13:05:20.021Z,705.54
2018-02-13T13:07:20.957Z,705.46
2018-02-13T13:08:21.417Z,705.54
2018-02-13T13:09:21.880Z,705.54
2018-02-13T13:10:22.345Z,705.49
2018-02-13T13:11:22.857Z,705.44
2018-02-13T13:12:23.265Z,705.51
2018-02-13T13:14:24.195Z,705.42
2018-02-13T13:15:24.664Z,705.43
2018-02-13T13:16:25.176Z,705.46